sensor_id;sensor_type;location;lat;lon;timestamp;pressure;altitude;pressure_sealevel;temperature;humidity
23473;BME280;11909;52.516;13.564;2024-01-15T00:00:09;98672.41;;;1.31;100.00
23473;BME280;11909;52.516;13.564;2024-01-15T00:02:37;98662.66;;;1.35;100.00
23473;BME280;11909;52.516;13.564;2024-01-15T00:05:06;98662.13;;;1.22;100.00
23473;BME280;11909;52.516;13.564;2024-01-15T00:07:35;98647.00;;;1.21;100.00
23473;BME280;11909;52.516;13.564;2024-01-15T00:10:03;98652.16;;;1.28;100.00
23473;BME280;11909;52.516;13.564;2024-01-15T00:12:31;98649.16;;;1.24;100.00
23473;BME280;11909;52.516;13.564;2024-01-15T00:14:59;98636.72;;;1.23;100.00
23473;BME280;11909;52.516;13.564;2024-01-15T00:17:28;98629.97;;;1.26;100.00
23473;BME280;11909;52.516;13.564;2024-01-15T00:19:56;98624.31;;;1.17;100.00
23473;BME280;11909;52.516;13.564;2024-01-15T00:22:25;98619.16;;;1.16;100.00
23473;BME280;11909;52.516;13.564;2024-01-15T00:24:53;98624.31;;;1.17;100.00
23473;BME280;11909;52.516;13.564;2024-01-15T00:27:21;98604.81;;;1.15;100.00
23473;BME280;11909;52.516;13.564;2024-01-15T00:29:50;98594.84;;;1.10;100.00
23473;BME280;11909;52.516;13.564;2024-01-15T00:32:18;98597.81;;;1.09;100.00
23473;BME280;11909;52.516;13.564;2024-01-15T00:34:47;98591.88;;;1.17;100.00
23473;BME280;11909;52.516;13.564;2024-01-15T00:37:16;98586.47;;;1.12;100.00
23473;BME280;11909;52.516;13.564;2024-01-15T00:39:44;98577.56;;;1.06;100.00
23473;BME280;11909;52.516;13.564;2024-01-15T00:42:12;98575.94;;;1.05;100.00
23473;BME280;11909;52.516;13.564;2024-01-15T00:44:41;98589.97;;;1.18;100.00
23473;BME280;11909;52.516;13.564;2024-01-15T00:47:09;98569.47;;;1.11;100.00
23473;BME280;11909;52.516;13.564;2024-01-15T00:49:37;98573.25;;;1.10;100.00
23473;BME280;11909;52.516;13.564;2024-01-15T00:52:06;98566.47;;;1.13;100.00
23473;BME280;11909;52.516;13.564;2024-01-15T00:54:35;98569.47;;;1.11;100.00
23473;BME280;11909;52.516;13.564;2024-01-15T00:57:03;98579.44;;;1.11;100.00
23473;BME280;11909;52.516;13.564;2024-01-15T00:59:31;98555.94;;;1.11;100.00
23473;BME280;11909;52.516;13.564;2024-01-15T01:01:59;98566.22;;;1.09;100.00
23473;BME280;11909;52.516;13.564;2024-01-15T01:04:27;98566.47;;;1.13;100.00
23473;BME280;11909;52.516;13.564;2024-01-15T01:06:55;98568.38;;;1.12;100.00
23473;BME280;11909;52.516;13.564;2024-01-15T01:09:24;98565.41;;;1.09;100.00
23473;BME280;11909;52.516;13.564;2024-01-15T01:11:55;98555.16;;;1.00;100.00
23473;BME280;11909;52.516;13.564;2024-01-15T01:14:23;98545.13;;;1.01;100.00
23473;BME280;11909;52.516;13.564;2024-01-15T01:16:51;98533.00;;;0.98;100.00
23473;BME280;11909;52.516;13.564;2024-01-15T01:19:19;98529.47;;;0.98;100.00
23473;BME280;11909;52.516;13.564;2024-01-15T01:21:47;98527.88;;;0.92;100.00
23473;BME280;11909;52.516;13.564;2024-01-15T01:24:17;98524.88;;;0.88;100.00
23473;BME280;11909;52.516;13.564;2024-01-15T01:26:46;98515.19;;;0.82;100.00
23473;BME280;11909;52.516;13.564;2024-01-15T01:29:15;98518.41;;;0.79;100.00
23473;BME280;11909;52.516;13.564;2024-01-15T01:31:43;98511.94;;;0.80;100.00
23473;BME280;11909;52.516;13.564;2024-01-15T01:34:14;98518.69;;;0.82;100.00
23473;BME280;11909;52.516;13.564;2024-01-15T01:36:42;98501.41;;;0.78;100.00
23473;BME280;11909;52.516;13.564;2024-01-15T01:39:11;98518.41;;;0.84;100.00
23473;BME280;11909;52.516;13.564;2024-01-15T01:41:39;98513.81;;;0.79;100.00
23473;BME280;11909;52.516;13.564;2024-01-15T01:44:08;98504.91;;;0.79;100.00
23473;BME280;11909;52.516;13.564;2024-01-15T01:46:36;98503.31;;;0.73;100.00
23473;BME280;11909;52.516;13.564;2024-01-15T01:49:08;98502.50;;;0.82;100.00
23473;BME280;11909;52.516;13.564;2024-01-15T01:51:38;98498.19;;;0.81;100.00
23473;BME280;11909;52.516;13.564;2024-01-15T01:54:07;98498.16;;;0.76;100.00
23473;BME280;11909;52.516;13.564;2024-01-15T01:56:38;98486.56;;;0.70;100.00
23473;BME280;11909;52.516;13.564;2024-01-15T01:59:09;98487.63;;;0.64;100.00
23473;BME280;11909;52.516;13.564;2024-01-15T02:01:38;98482.00;;;0.61;100.00
23473;BME280;11909;52.516;13.564;2024-01-15T02:04:06;98480.91;;;0.67;100.00
23473;BME280;11909;52.516;13.564;2024-01-15T02:06:34;98487.94;;;0.63;100.00
23473;BME280;11909;52.516;13.564;2024-01-15T02:09:03;98484.41;;;0.62;100.00
23473;BME280;11909;52.516;13.564;2024-01-15T02:11:32;98472.53;;;0.63;100.00
23473;BME280;11909;52.516;13.564;2024-01-15T02:14:00;98480.06;;;0.66;100.00
23473;BME280;11909;52.516;13.564;2024-01-15T02:16:30;98479.81;;;0.68;100.00
23473;BME280;11909;52.516;13.564;2024-01-15T02:18:58;98476.28;;;0.67;100.00
23473;BME280;11909;52.516;13.564;2024-01-15T02:21:26;98482.25;;;0.69;100.00
23473;BME280;11909;52.516;13.564;2024-01-15T02:23:56;98487.94;;;0.63;100.00
23473;BME280;11909;52.516;13.564;2024-01-15T02:26:25;98488.72;;;0.58;100.00
23473;BME280;11909;52.516;13.564;2024-01-15T02:28:53;98497.38;;;0.70;100.00
23473;BME280;11909;52.516;13.564;2024-01-15T02:31:22;98490.88;;;0.66;100.00
23473;BME280;11909;52.516;13.564;2024-01-15T02:33:50;98496.00;;;0.68;100.00
23473;BME280;11909;52.516;13.564;2024-01-15T02:36:18;98520.59;;;0.71;100.00
23473;BME280;11909;52.516;13.564;2024-01-15T02:38:46;98523.81;;;0.68;100.00
23473;BME280;11909;52.516;13.564;2024-01-15T02:41:15;98517.91;;;0.71;100.00
23473;BME280;11909;52.516;13.564;2024-01-15T02:43:43;98506.00;;;0.67;100.00
23473;BME280;11909;52.516;13.564;2024-01-15T02:46:11;98513.00;;;0.68;100.00
23473;BME280;11909;52.516;13.564;2024-01-15T02:48:39;98519.50;;;0.73;100.00
23473;BME280;11909;52.516;13.564;2024-01-15T02:51:06;98508.97;;;0.66;100.00
23473;BME280;11909;52.516;13.564;2024-01-15T02:53:35;98505.75;;;0.64;100.00
23473;BME280;11909;52.516;13.564;2024-01-15T02:56:04;98517.34;;;0.64;100.00
23473;BME280;11909;52.516;13.564;2024-01-15T02:58:33;98513.00;;;0.68;100.00
23473;BME280;11909;52.516;13.564;2024-01-15T03:01:01;98518.16;;;0.65;100.00
23473;BME280;11909;52.516;13.564;2024-01-15T03:03:29;98523.00;;;0.73;100.00
23473;BME280;11909;52.516;13.564;2024-01-15T03:05:59;98525.72;;;0.73;100.00
23473;BME280;11909;52.516;13.564;2024-01-15T03:08:29;98526.25;;;0.70;100.00
23473;BME280;11909;52.516;13.564;2024-01-15T03:10:57;98523.56;;;0.70;100.00
23473;BME280;11909;52.516;13.564;2024-01-15T03:13:25;98518.41;;;0.68;100.00
23473;BME280;11909;52.516;13.564;2024-01-15T03:15:55;98517.91;;;0.71;100.00
23473;BME280;11909;52.516;13.564;2024-01-15T03:18:23;98514.66;;;0.75;100.00
23473;BME280;11909;52.516;13.564;2024-01-15T03:20:51;98515.19;;;0.77;100.00
23473;BME280;11909;52.516;13.564;2024-01-15T03:23:19;98505.72;;;0.74;100.00
23473;BME280;11909;52.516;13.564;2024-01-15T03:25:47;98512.47;;;0.77;100.00
23473;BME280;11909;52.516;13.564;2024-01-15T03:28:15;98514.09;;;0.78;100.00
23473;BME280;11909;52.516;13.564;2024-01-15T03:30:43;98506.00;;;0.78;100.00
23473;BME280;11909;52.516;13.564;2024-01-15T03:33:13;98527.06;;;0.81;100.00
23473;BME280;11909;52.516;13.564;2024-01-15T03:35:41;98522.75;;;0.75;100.00
23473;BME280;11909;52.516;13.564;2024-01-15T03:38:08;98514.91;;;0.78;100.00
23473;BME280;11909;52.516;13.564;2024-01-15T03:40:36;98499.00;;;0.77;100.00
23473;BME280;11909;52.516;13.564;2024-01-15T03:43:04;98502.22;;;0.79;100.00
23473;BME280;11909;52.516;13.564;2024-01-15T03:45:32;98505.72;;;0.69;100.00
23473;BME280;11909;52.516;13.564;2024-01-15T03:48:00;98506.00;;;0.73;100.00
23473;BME280;11909;52.516;13.564;2024-01-15T03:50:29;98509.25;;;0.69;100.00
23473;BME280;11909;52.516;13.564;2024-01-15T03:52:57;98500.88;;;0.71;100.00
23473;BME280;11909;52.516;13.564;2024-01-15T03:55:25;98501.97;;;0.65;100.00
23473;BME280;11909;52.516;13.564;2024-01-15T03:57:53;98485.22;;;0.73;100.00
23473;BME280;11909;52.516;13.564;2024-01-15T04:00:22;98496.00;;;0.73;100.00
23473;BME280;11909;52.516;13.564;2024-01-15T04:02:50;98481.69;;;0.78;100.00
23473;BME280;11909;52.516;13.564;2024-01-15T04:05:18;98477.38;;;0.77;100.00
23473;BME280;11909;52.516;13.564;2024-01-15T04:07:47;98473.31;;;0.74;100.00
23473;BME280;11909;52.516;13.564;2024-01-15T04:10:15;98479.00;;;0.78;100.00
23473;BME280;11909;52.516;13.564;2024-01-15T04:12:43;98468.47;;;0.81;100.00
23473;BME280;11909;52.516;13.564;2024-01-15T04:15:13;98474.41;;;0.78;100.00
23473;BME280;11909;52.516;13.564;2024-01-15T04:17:41;98472.22;;;0.80;100.00
23473;BME280;11909;52.516;13.564;2024-01-15T04:20:10;98465.50;;;0.83;100.00
23473;BME280;11909;52.516;13.564;2024-01-15T04:22:38;98462.00;;;0.82;100.00
23473;BME280;11909;52.516;13.564;2024-01-15T04:25:07;98464.69;;;0.82;100.00
23473;BME280;11909;52.516;13.564;2024-01-15T04:27:35;98470.09;;;0.82;100.00
23473;BME280;11909;52.516;13.564;2024-01-15T04:30:04;98476.31;;;0.78;100.00
23473;BME280;11909;52.516;13.564;2024-01-15T04:32:32;98461.16;;;0.87;100.00
23473;BME280;11909;52.516;13.564;2024-01-15T04:35:00;98470.34;;;0.86;100.00
23473;BME280;11909;52.516;13.564;2024-01-15T04:37:28;98476.56;;;0.92;100.00
23473;BME280;11909;52.516;13.564;2024-01-15T04:39:56;98466.00;;;0.90;100.00
23473;BME280;11909;52.516;13.564;2024-01-15T04:42:25;98471.16;;;0.87;100.00
23473;BME280;11909;52.516;13.564;2024-01-15T04:44:53;98468.44;;;0.92;100.00
23473;BME280;11909;52.516;13.564;2024-01-15T04:47:21;98462.78;;;0.93;100.00
23473;BME280;11909;52.516;13.564;2024-01-15T04:49:49;98467.63;;;0.91;100.00
23473;BME280;11909;52.516;13.564;2024-01-15T04:52:18;98460.34;;;0.97;100.00
23473;BME280;11909;52.516;13.564;2024-01-15T04:54:45;98466.28;;;0.94;100.00
23473;BME280;11909;52.516;13.564;2024-01-15T04:57:13;98459.28;;;0.88;100.00
23473;BME280;11909;52.516;13.564;2024-01-15T04:59:42;98447.63;;;0.92;100.00
23473;BME280;11909;52.516;13.564;2024-01-15T05:02:10;98453.88;;;0.93;100.00
23473;BME280;11909;52.516;13.564;2024-01-15T05:04:38;98450.06;;;0.94;100.00
23473;BME280;11909;52.516;13.564;2024-01-15T05:07:07;98460.31;;;1.02;100.00
23473;BME280;11909;52.516;13.564;2024-01-15T05:09:35;98472.19;;;1.01;100.00
23473;BME280;11909;52.516;13.564;2024-01-15T05:12:04;98461.41;;;1.01;100.00
23473;BME280;11909;52.516;13.564;2024-01-15T05:14:32;98466.53;;;1.03;100.00
23473;BME280;11909;52.516;13.564;2024-01-15T05:17:01;98459.22;;;1.03;100.00
23473;BME280;11909;52.516;13.564;2024-01-15T05:19:29;98453.56;;;1.05;100.00
23473;BME280;11909;52.516;13.564;2024-01-15T05:21:57;98454.09;;;1.07;100.00
23473;BME280;11909;52.516;13.564;2024-01-15T05:24:25;98464.38;;;1.05;100.00
23473;BME280;11909;52.516;13.564;2024-01-15T05:26:53;98445.19;;;1.01;100.00
23473;BME280;11909;52.516;13.564;2024-01-15T05:29:21;98448.97;;;1.00;100.00
23473;BME280;11909;52.516;13.564;2024-01-15T05:31:49;98447.63;;;1.03;100.00
23473;BME280;11909;52.516;13.564;2024-01-15T05:34:19;98433.06;;;0.98;100.00
23473;BME280;11909;52.516;13.564;2024-01-15T05:36:47;98440.34;;;0.98;100.00
23473;BME280;11909;52.516;13.564;2024-01-15T05:39:15;98436.84;;;0.92;100.00
23473;BME280;11909;52.516;13.564;2024-01-15T05:41:44;98420.09;;;0.90;100.00
23473;BME280;11909;52.516;13.564;2024-01-15T05:44:12;98416.31;;;0.91;100.00
23473;BME280;11909;52.516;13.564;2024-01-15T05:46:40;98427.38;;;0.95;100.00
23473;BME280;11909;52.516;13.564;2024-01-15T05:49:07;98428.19;;;1.00;100.00
23473;BME280;11909;52.516;13.564;2024-01-15T05:51:37;98442.78;;;0.99;100.00
23473;BME280;11909;52.516;13.564;2024-01-15T05:54:05;98434.91;;;1.03;100.00
23473;BME280;11909;52.516;13.564;2024-01-15T05:56:33;98443.03;;;1.03;100.00
23473;BME280;11909;52.516;13.564;2024-01-15T05:59:01;98438.72;;;1.07;100.00
23473;BME280;11909;52.516;13.564;2024-01-15T06:01:29;98441.94;;;1.09;100.00
23473;BME280;11909;52.516;13.564;2024-01-15T06:03:57;98421.94;;;1.10;100.00
23473;BME280;11909;52.516;13.564;2024-01-15T06:06:25;98428.44;;;1.09;100.00
23473;BME280;11909;52.516;13.564;2024-01-15T06:08:55;98431.69;;;1.06;100.00
23473;BME280;11909;52.516;13.564;2024-01-15T06:11:22;98437.09;;;0.96;100.00
23473;BME280;11909;52.516;13.564;2024-01-15T06:13:50;98411.47;;;0.88;100.00
23473;BME280;11909;52.516;13.564;2024-01-15T06:16:18;98417.13;;;0.92;100.00
23473;BME280;11909;52.516;13.564;2024-01-15T06:18:47;98428.22;;;0.85;100.00
23473;BME280;11909;52.516;13.564;2024-01-15T06:21:15;98417.94;;;0.92;100.00
23473;BME280;11909;52.516;13.564;2024-01-15T06:23:43;98426.56;;;0.99;100.00
23473;BME280;11909;52.516;13.564;2024-01-15T06:26:12;98421.72;;;1.02;100.00
23473;BME280;11909;52.516;13.564;2024-01-15T06:28:41;98425.50;;;1.00;100.00
23473;BME280;11909;52.516;13.564;2024-01-15T06:31:08;98430.31;;;1.09;100.00
23473;BME280;11909;52.516;13.564;2024-01-15T06:33:37;98427.06;;;1.12;100.00
23473;BME280;11909;52.516;13.564;2024-01-15T06:36:06;98425.44;;;1.11;100.00
23473;BME280;11909;52.516;13.564;2024-01-15T06:38:34;98440.81;;;1.21;100.00
23473;BME280;11909;52.516;13.564;2024-01-15T06:41:02;98448.66;;;1.22;100.00
23473;BME280;11909;52.516;13.564;2024-01-15T06:43:32;98440.78;;;1.26;100.00
23473;BME280;11909;52.516;13.564;2024-01-15T06:45:59;98451.59;;;1.26;100.00
23473;BME280;11909;52.516;13.564;2024-01-15T06:48:33;98436.78;;;1.23;100.00
23473;BME280;11909;52.516;13.564;2024-01-15T06:51:01;98435.97;;;1.18;100.00
23473;BME280;11909;52.516;13.564;2024-01-15T06:53:29;98432.75;;;1.10;100.00
23473;BME280;11909;52.516;13.564;2024-01-15T06:55:56;98442.22;;;1.08;100.00
23473;BME280;11909;52.516;13.564;2024-01-15T06:58:24;98453.03;;;1.03;100.00
23473;BME280;11909;52.516;13.564;2024-01-15T07:00:54;98451.91;;;1.14;100.00
23473;BME280;11909;52.516;13.564;2024-01-15T07:03:22;98435.16;;;1.12;100.00
23473;BME280;11909;52.516;13.564;2024-01-15T07:05:50;98429.47;;;1.19;100.00
23473;BME280;11909;52.516;13.564;2024-01-15T07:08:18;98433.81;;;1.14;100.00
23473;BME280;11909;52.516;13.564;2024-01-15T07:10:46;98438.16;;;1.10;100.00
23473;BME280;11909;52.516;13.564;2024-01-15T07:13:14;98437.06;;;1.11;100.00
23473;BME280;11909;52.516;13.564;2024-01-15T07:15:42;98439.50;;;1.08;100.00
23473;BME280;11909;52.516;13.564;2024-01-15T07:18:11;98444.38;;;1.06;100.00
23473;BME280;11909;52.516;13.564;2024-01-15T07:20:39;98446.28;;;1.05;100.00
23473;BME280;11909;52.516;13.564;2024-01-15T07:23:07;98456.81;;;1.07;100.00
23473;BME280;11909;52.516;13.564;2024-01-15T07:25:35;98461.94;;;1.08;100.00
23473;BME280;11909;52.516;13.564;2024-01-15T07:28:03;98463.00;;;1.02;100.00
23473;BME280;11909;52.516;13.564;2024-01-15T07:30:32;98465.19;;;1.05;100.00
23473;BME280;11909;52.516;13.564;2024-01-15T07:32:59;98464.63;;;1.03;100.00
23473;BME280;11909;52.516;13.564;2024-01-15T07:35:29;98466.25;;;1.09;100.00
23473;BME280;11909;52.516;13.564;2024-01-15T07:37:57;98477.59;;;1.11;100.00
23473;BME280;11909;52.516;13.564;2024-01-15T07:40:25;98475.16;;;1.10;100.00
23473;BME280;11909;52.516;13.564;2024-01-15T07:42:53;98484.34;;;1.19;100.00
23473;BME280;11909;52.516;13.564;2024-01-15T07:45:21;98492.72;;;1.12;100.00
23473;BME280;11909;52.516;13.564;2024-01-15T07:47:49;98488.66;;;1.20;100.00
23473;BME280;11909;52.516;13.564;2024-01-15T07:50:17;98482.41;;;1.25;100.00
23473;BME280;11909;52.516;13.564;2024-01-15T07:52:46;98497.03;;;1.29;100.00
23473;BME280;11909;52.516;13.564;2024-01-15T07:55:15;98512.94;;;1.31;100.00
23473;BME280;11909;52.516;13.564;2024-01-15T07:57:43;98505.91;;;1.35;100.00
23473;BME280;11909;52.516;13.564;2024-01-15T08:00:21;98512.66;;;1.37;100.00
23473;BME280;11909;52.516;13.564;2024-01-15T08:02:49;98526.19;;;1.32;100.00
23473;BME280;11909;52.516;13.564;2024-01-15T08:05:17;98517.00;;;1.33;100.00
23473;BME280;11909;52.516;13.564;2024-01-15T08:07:47;98510.28;;;1.20;100.00
23473;BME280;11909;52.516;13.564;2024-01-15T08:10:15;98501.59;;;1.28;100.00
23473;BME280;11909;52.516;13.564;2024-01-15T08:12:43;98494.31;;;1.29;100.00
23473;BME280;11909;52.516;13.564;2024-01-15T08:15:11;98513.22;;;1.29;100.00
23473;BME280;11909;52.516;13.564;2024-01-15T08:17:39;98514.03;;;1.40;100.00
23473;BME280;11909;52.516;13.564;2024-01-15T08:20:07;98512.41;;;1.39;100.00
23473;BME280;11909;52.516;13.564;2024-01-15T08:22:38;98513.47;;;1.43;100.00
23473;BME280;11909;52.516;13.564;2024-01-15T08:25:08;98502.06;;;1.51;100.00
23473;BME280;11909;52.516;13.564;2024-01-15T08:27:36;98522.09;;;1.45;100.00
23473;BME280;11909;52.516;13.564;2024-01-15T08:30:05;98515.63;;;1.46;100.00
23473;BME280;11909;52.516;13.564;2024-01-15T08:32:33;98512.88;;;1.51;100.00
23473;BME280;11909;52.516;13.564;2024-01-15T08:35:03;98509.91;;;1.48;100.00
23473;BME280;11909;52.516;13.564;2024-01-15T08:37:31;98505.59;;;1.47;100.00
23473;BME280;11909;52.516;13.564;2024-01-15T08:39:59;98512.34;;;1.49;100.00
23473;BME280;11909;52.516;13.564;2024-01-15T08:42:29;98522.38;;;1.43;100.00
23473;BME280;11909;52.516;13.564;2024-01-15T08:44:57;98518.03;;;1.48;100.00
23473;BME280;11909;52.516;13.564;2024-01-15T08:47:24;98519.97;;;1.42;100.00
23473;BME280;11909;52.516;13.564;2024-01-15T08:49:53;98517.22;;;1.47;100.00
23473;BME280;11909;52.516;13.564;2024-01-15T08:52:20;98531.28;;;1.49;100.00
23473;BME280;11909;52.516;13.564;2024-01-15T08:54:49;98525.91;;;1.44;100.00
23473;BME280;11909;52.516;13.564;2024-01-15T08:57:17;98516.16;;;1.48;100.00
23473;BME280;11909;52.516;13.564;2024-01-15T08:59:46;98535.34;;;1.47;100.00
23473;BME280;11909;52.516;13.564;2024-01-15T09:02:14;98520.50;;;1.44;100.00
23473;BME280;11909;52.516;13.564;2024-01-15T09:04:42;98519.66;;;1.49;100.00
23473;BME280;11909;52.516;13.564;2024-01-15T09:07:10;98529.16;;;1.41;100.00
23473;BME280;11909;52.516;13.564;2024-01-15T09:09:38;98529.09;;;1.51;100.00
23473;BME280;11909;52.516;13.564;2024-01-15T09:12:06;98548.84;;;1.52;100.00
23473;BME280;11909;52.516;13.564;2024-01-15T09:14:34;98543.72;;;1.50;100.00
23473;BME280;11909;52.516;13.564;2024-01-15T09:17:05;98540.19;;;1.50;100.00
23473;BME280;11909;52.516;13.564;2024-01-15T09:19:32;98541.81;;;1.46;100.00
23473;BME280;11909;52.516;13.564;2024-01-15T09:22:01;98531.84;;;1.41;100.00
23473;BME280;11909;52.516;13.564;2024-01-15T09:24:29;98544.81;;;1.44;100.00
23473;BME280;11909;52.516;13.564;2024-01-15T09:26:57;98539.38;;;1.49;100.00
23473;BME280;11909;52.516;13.564;2024-01-15T09:29:25;98555.06;;;1.47;100.00
23473;BME280;11909;52.516;13.564;2024-01-15T09:31:53;98549.09;;;1.55;100.00
23473;BME280;11909;52.516;13.564;2024-01-15T09:34:22;98548.53;;;1.58;100.00
23473;BME280;11909;52.516;13.564;2024-01-15T09:36:50;98551.53;;;1.57;100.00
23473;BME280;11909;52.516;13.564;2024-01-15T09:39:18;98554.25;;;1.57;100.00
23473;BME280;11909;52.516;13.564;2024-01-15T09:41:47;98555.56;;;1.60;100.00
23473;BME280;11909;52.516;13.564;2024-01-15T09:44:16;98557.47;;;1.59;100.00
23473;BME280;11909;52.516;13.564;2024-01-15T09:46:45;98559.34;;;1.69;100.00
23473;BME280;11909;52.516;13.564;2024-01-15T09:49:16;98557.16;;;1.71;100.00
23473;BME280;11909;52.516;13.564;2024-01-15T09:51:47;98567.69;;;1.83;100.00
23473;BME280;11909;52.516;13.564;2024-01-15T09:54:28;98567.94;;;1.86;100.00
23473;BME280;11909;52.516;13.564;2024-01-15T09:56:56;98563.53;;;2.01;100.00
23473;BME280;11909;52.516;13.564;2024-01-15T09:59:24;98553.53;;;2.02;100.00
23473;BME280;11909;52.516;13.564;2024-01-15T10:01:54;98559.75;;;2.02;100.00
23473;BME280;11909;52.516;13.564;2024-01-15T10:04:23;98574.06;;;2.08;100.00
23473;BME280;11909;52.516;13.564;2024-01-15T10:06:53;98550.84;;;2.02;100.00
23473;BME280;11909;52.516;13.564;2024-01-15T10:09:22;98563.31;;;1.92;100.00
23473;BME280;11909;52.516;13.564;2024-01-15T10:11:50;98548.41;;;2.00;100.00
23473;BME280;11909;52.516;13.564;2024-01-15T10:14:18;98540.28;;;2.00;100.00
23473;BME280;11909;52.516;13.564;2024-01-15T10:16:46;98542.50;;;1.93;100.00
23473;BME280;11909;52.516;13.564;2024-01-15T10:19:14;98538.69;;;1.94;100.00
23473;BME280;11909;52.516;13.564;2024-01-15T10:21:42;98548.44;;;1.84;100.00
23473;BME280;11909;52.516;13.564;2024-01-15T10:24:12;98561.19;;;1.84;100.00
23473;BME280;11909;52.516;13.564;2024-01-15T10:26:40;98534.72;;;1.76;100.00
23473;BME280;11909;52.516;13.564;2024-01-15T10:29:07;98531.47;;;1.79;100.00
23473;BME280;11909;52.516;13.564;2024-01-15T10:31:37;98531.16;;;1.80;100.00
23473;BME280;11909;52.516;13.564;2024-01-15T10:34:12;98536.53;;;1.91;100.00
23473;BME280;11909;52.516;13.564;2024-01-15T10:36:45;98532.72;;;1.97;100.00
23473;BME280;11909;52.516;13.564;2024-01-15T10:39:15;98540.34;;;1.90;100.00
23473;BME280;11909;52.516;13.564;2024-01-15T10:41:44;98550.34;;;1.89;100.00
23473;BME280;11909;52.516;13.564;2024-01-15T10:44:12;98538.19;;;1.86;100.00
23473;BME280;11909;52.516;13.564;2024-01-15T10:46:40;98529.78;;;1.88;100.00
23473;BME280;11909;52.516;13.564;2024-01-15T10:49:08;98539.00;;;1.82;100.00
23473;BME280;11909;52.516;13.564;2024-01-15T10:51:37;98539.00;;;1.82;100.00
23473;BME280;11909;52.516;13.564;2024-01-15T10:54:05;98530.84;;;1.92;100.00
23473;BME280;11909;52.516;13.564;2024-01-15T10:56:39;98530.84;;;1.92;100.00
23473;BME280;11909;52.516;13.564;2024-01-15T10:59:08;98539.75;;;1.98;100.00
23473;BME280;11909;52.516;13.564;2024-01-15T11:01:38;98535.16;;;1.98;100.00
23473;BME280;11909;52.516;13.564;2024-01-15T11:04:06;98537.59;;;1.95;100.00
23473;BME280;11909;52.516;13.564;2024-01-15T11:06:42;98519.72;;;1.99;100.00
23473;BME280;11909;52.516;13.564;2024-01-15T11:09:12;98528.66;;;1.99;100.00
23473;BME280;11909;52.516;13.564;2024-01-15T11:11:43;98537.28;;;2.07;100.00
23473;BME280;11909;52.516;13.564;2024-01-15T11:14:24;98545.13;;;2.08;100.00
23473;BME280;11909;52.516;13.564;2024-01-15T11:17:01;98544.31;;;2.08;100.00
23473;BME280;11909;52.516;13.564;2024-01-15T11:19:36;98540.28;;;2.00;100.00
23473;BME280;11909;52.516;13.564;2024-01-15T11:22:04;98537.00;;;2.08;100.00
23473;BME280;11909;52.516;13.564;2024-01-15T11:24:37;98544.03;;;2.09;100.00
23473;BME280;11909;52.516;13.564;2024-01-15T11:27:07;98540.00;;;2.02;100.00
23473;BME280;11909;52.516;13.564;2024-01-15T11:29:36;98543.78;;;2.06;100.00
23473;BME280;11909;52.516;13.564;2024-01-15T11:32:05;98534.59;;;2.02;100.00
23473;BME280;11909;52.516;13.564;2024-01-15T11:34:53;98561.06;;;2.10;100.00
23473;BME280;11909;52.516;13.564;2024-01-15T11:37:27;98555.69;;;2.05;100.00
23473;BME280;11909;52.516;13.564;2024-01-15T11:39:55;98557.84;;;2.08;100.00
23473;BME280;11909;52.516;13.564;2024-01-15T11:42:25;98552.94;;;2.10;100.00
23473;BME280;11909;52.516;13.564;2024-01-15T11:44:55;98547.84;;;2.03;100.00
23473;BME280;11909;52.516;13.564;2024-01-15T11:50:34;98543.78;;;2.06;100.00
23473;BME280;11909;52.516;13.564;2024-01-15T11:53:21;98556.19;;;2.12;100.00
23473;BME280;11909;52.516;13.564;2024-01-15T11:55:57;98546.22;;;2.02;100.00
23473;BME280;11909;52.516;13.564;2024-01-15T11:58:27;98546.50;;;2.00;100.00
23473;BME280;11909;52.516;13.564;2024-01-15T12:00:55;98549.00;;;1.81;100.00
23473;BME280;11909;52.516;13.564;2024-01-15T12:03:23;98555.31;;;1.61;100.00
23473;BME280;11909;52.516;13.564;2024-01-15T12:05:52;98526.72;;;1.39;100.00
23473;BME280;11909;52.516;13.564;2024-01-15T12:08:22;98532.94;;;1.40;100.00
23473;BME280;11909;52.516;13.564;2024-01-15T12:10:50;98530.53;;;1.23;100.00
23473;BME280;11909;52.516;13.564;2024-01-15T12:13:18;98520.78;;;1.22;100.00
23473;BME280;11909;52.516;13.564;2024-01-15T12:15:49;98499.19;;;1.27;100.00
23473;BME280;11909;52.516;13.564;2024-01-15T12:18:18;98497.56;;;1.21;100.00
23473;BME280;11909;52.516;13.564;2024-01-15T12:20:47;98496.19;;;1.34;100.00
23473;BME280;11909;52.516;13.564;2024-01-15T12:23:16;98496.97;;;1.39;100.00
23473;BME280;11909;52.516;13.564;2024-01-15T12:25:45;98508.06;;;1.38;100.00
23473;BME280;11909;52.516;13.564;2024-01-15T12:28:12;98522.41;;;1.33;100.00
23473;BME280;11909;52.516;13.564;2024-01-15T12:30:40;98527.53;;;1.40;100.00
23473;BME280;11909;52.516;13.564;2024-01-15T12:33:10;98532.13;;;1.39;100.00
23473;BME280;11909;52.516;13.564;2024-01-15T12:35:38;98535.63;;;1.35;100.00
23473;BME280;11909;52.516;13.564;2024-01-15T12:38:06;98539.97;;;1.31;100.00
23473;BME280;11909;52.516;13.564;2024-01-15T12:40:34;98526.97;;;1.43;100.00
23473;BME280;11909;52.516;13.564;2024-01-15T12:43:04;98531.56;;;1.42;100.00
23473;BME280;11909;52.516;13.564;2024-01-15T12:45:33;98528.31;;;1.46;100.00
23473;BME280;11909;52.516;13.564;2024-01-15T12:48:02;98539.41;;;1.44;100.00
23473;BME280;11909;52.516;13.564;2024-01-15T12:50:33;98543.19;;;1.43;100.00
23473;BME280;11909;52.516;13.564;2024-01-15T12:53:01;98541.31;;;1.38;100.00
23473;BME280;11909;52.516;13.564;2024-01-15T12:55:29;98543.50;;;1.31;100.00
23473;BME280;11909;52.516;13.564;2024-01-15T12:57:57;98541.59;;;1.26;100.00
23473;BME280;11909;52.516;13.564;2024-01-15T13:00:25;98532.69;;;1.21;100.00